Time;durP1;ratioP1;P1;durP2;ratioP2;P2;SDS_P1;SDS_P2;PMS_P1;PMS_P2;Temp;Humidity;BMP_temperature;BMP_pressure;BME280_temperature;BME280_humidity;BME280_pressure;Samples;Min_cycle;Max_cycle;Signal;HPM_P1;HPM_P2
2023/09/11 00:00:10;;;;;;;24.00;11.45;;;;;;;21.21;67.23;99794.25;5090773;28;20056;-51
2023/09/11 00:02:37;;;;;;;20.83;11.68;;;;;;;21.20;67.17;99805.72;5089928;28;20052;-45
2023/09/11 00:05:04;;;;;;;20.20;11.52;;;;;;;21.18;67.25;99799.69;5092460;28;20149;-52
2023/09/11 00:07:31;;;;;;;23.50;12.85;;;;;;;21.15;67.20;99797.22;5091636;28;20689;-44
2023/09/11 00:09:58;;;;;;;22.48;13.13;;;;;;;21.12;67.66;99797.38;5088601;28;20122;-48
2023/09/11 00:12:25;;;;;;;22.00;12.27;;;;;;;21.12;67.39;99792.09;5083037;28;20127;-57
2023/09/11 00:14:51;;;;;;;24.58;12.40;;;;;;;21.10;67.62;99789.53;5085403;28;20524;-52
2023/09/11 00:17:18;;;;;;;19.92;11.63;;;;;;;21.10;67.54;99800.06;5085845;28;20052;-50
2023/09/11 00:19:45;;;;;;;23.13;12.68;;;;;;;21.09;67.95;99802.78;5082315;28;20094;-49
2023/09/11 00:22:11;;;;;;;24.00;12.50;;;;;;;21.06;67.87;99806.44;5085039;28;20048;-51
2023/09/11 00:24:39;;;;;;;25.95;13.10;;;;;;;21.06;67.55;99803.78;5088178;28;20039;-47
2023/09/11 00:27:09;;;;;;;24.77;13.60;;;;;;;21.04;68.06;99805.66;5089952;28;20071;-46
2023/09/11 00:29:36;;;;;;;;;;;;;;;20.80;68.33;99804.13;5089148;28;20125;-47
2023/09/11 00:32:06;;;;;;;27.50;13.82;;;;;;;20.94;67.93;99800.00;5077690;28;19939;-48
2023/09/11 00:34:34;;;;;;;26.95;14.73;;;;;;;20.97;68.29;99805.09;5091749;28;20051;-48
2023/09/11 00:37:03;;;;;;;25.63;14.07;;;;;;;20.99;68.36;99802.41;5088392;28;20047;-53
2023/09/11 00:39:32;;;;;;;24.80;13.55;;;;;;;21.01;68.77;99801.38;5096621;28;20039;-50
2023/09/11 00:42:00;;;;;;;29.77;14.68;;;;;;;21.05;68.89;99800.28;5084969;28;20105;-49
2023/09/11 00:44:29;;;;;;;25.25;13.38;;;;;;;21.10;68.31;99804.50;5099992;28;20044;-44
2023/09/11 00:46:59;;;;;;;30.85;14.88;;;;;;;21.14;68.66;99803.41;5093822;28;20048;-49
2023/09/11 00:49:28;;;;;;;31.73;17.02;;;;;;;21.18;68.70;99797.06;5071443;28;20747;-52
2023/09/11 00:51:56;;;;;;;28.40;14.77;;;;;;;21.21;68.82;99804.78;5094186;28;20051;-50
2023/09/11 00:54:26;;;;;;;33.35;14.23;;;;;;;21.23;68.88;99795.03;5088122;28;20049;-50
2023/09/11 00:56:56;;;;;;;26.60;14.70;;;;;;;21.25;68.67;99793.19;5084006;28;20039;-45
2023/09/11 00:59:25;;;;;;;30.98;15.40;;;;;;;21.26;69.02;99794.88;5071284;28;20040;-55
2023/09/11 01:01:53;;;;;;;30.75;15.13;;;;;;;21.30;68.95;99788.53;5090316;28;20051;-49
2023/09/11 01:04:23;;;;;;;31.02;15.80;;;;;;;21.31;69.31;99792.00;5103777;28;20077;-51
2023/09/11 01:06:51;;;;;;;28.48;14.60;;;;;;;21.31;69.06;99792.84;5102482;28;20047;-49
2023/09/11 01:09:17;;;;;;;33.00;15.00;;;;;;;21.34;69.23;99793.63;5097084;28;20031;-48
2023/09/11 01:11:44;;;;;;;35.28;16.10;;;;;;;21.34;68.90;99785.72;5095288;28;20048;-48
2023/09/11 01:14:11;;;;;;;31.92;15.38;;;;;;;21.32;69.30;99786.63;5098428;28;20051;-52
2023/09/11 01:30:25;;;;;;;29.98;15.77;;;;;;;21.09;69.92;99777.31;5032197;27;20409;-47
2023/09/11 01:32:52;;;;;;;34.42;15.45;;;;;;;21.05;69.73;99776.59;5011473;28;20050;-57
2023/09/11 01:35:20;;;;;;;34.35;17.38;;;;;;;21.04;69.31;99780.16;5023123;28;20049;-50
2023/09/11 01:37:47;;;;;;;36.03;17.63;;;;;;;21.00;69.72;99778.63;5015974;28;20053;-49
2023/09/11 01:40:14;;;;;;;34.78;16.85;;;;;;;20.98;70.04;99780.50;5015376;28;20037;-54
2023/09/11 01:42:44;;;;;;;31.50;16.65;;;;;;;20.95;69.77;99775.38;5013609;28;20088;-54
2023/09/11 01:45:15;;;;;;;33.88;17.20;;;;;;;20.95;69.93;99779.78;5015616;28;20046;-52
2023/09/11 01:47:45;;;;;;;32.08;17.80;;;;;;;20.93;70.17;99771.97;5013690;28;20415;-51
2023/09/11 01:50:15;;;;;;;34.78;18.58;;;;;;;20.90;70.41;99778.25;5018699;28;20423;-50
2023/09/11 01:52:45;;;;;;;40.78;17.73;;;;;;;20.90;69.98;99782.63;5011506;28;20053;-56
2023/09/11 01:55:12;;;;;;;;;;;;;;;20.67;70.16;99774.94;5018267;28;20058;-47
2023/09/11 01:57:38;;;;;;;36.70;16.77;;;;;;;20.80;70.20;99775.19;5016083;28;19925;-50
2023/09/11 02:00:07;;;;;;;35.70;17.95;;;;;;;20.80;70.45;99766.44;5017816;28;20486;-51
2023/09/11 02:02:34;;;;;;;33.92;17.23;;;;;;;20.79;70.33;99770.88;5016810;28;20123;-50
2023/09/11 02:05:01;;;;;;;38.42;18.23;;;;;;;20.77;70.46;99775.34;5001668;28;20045;-55
2023/09/11 02:07:28;;;;;;;37.97;18.10;;;;;;;20.77;70.25;99777.13;5005349;28;20050;-52
2023/09/11 02:09:54;;;;;;;39.63;18.13;;;;;;;20.75;70.82;99774.56;5012575;28;20388;-52
2023/09/11 02:12:22;;;;;;;36.97;17.73;;;;;;;20.73;70.79;99779.06;5013181;28;20054;-52
2023/09/11 02:14:49;;;;;;;37.45;18.00;;;;;;;20.72;70.43;99779.97;5017698;28;20062;-50
2023/09/11 02:17:15;;;;;;;36.38;17.77;;;;;;;20.72;71.09;99782.63;5018810;28;20151;-45
2023/09/11 02:19:42;;;;;;;35.97;18.38;;;;;;;20.74;70.95;99787.81;5012158;28;20034;-55
2023/09/11 02:22:09;;;;;;;35.00;17.88;;;;;;;20.72;70.92;99777.34;5011629;28;20054;-52
2023/09/11 02:24:36;;;;;;;31.85;16.13;;;;;;;20.71;70.69;99786.19;5006430;28;20622;-48
2023/09/11 02:27:03;;;;;;;34.15;17.48;;;;;;;20.70;70.95;99779.19;5017217;28;20133;-56
2023/09/11 02:29:30;;;;;;;38.95;17.77;;;;;;;20.69;70.68;99780.13;5016307;28;20529;-54
2023/09/11 02:31:56;;;;;;;39.13;16.77;;;;;;;20.69;70.87;99785.41;5013103;28;20076;-48
2023/09/11 02:34:23;;;;;;;35.28;16.00;;;;;;;20.67;71.09;99776.75;5013988;28;20057;-53
2023/09/11 02:36:50;;;;;;;33.92;16.00;;;;;;;20.67;70.83;99779.38;5015158;28;20486;-51
2023/09/11 02:39:16;;;;;;;33.42;15.90;;;;;;;20.68;71.20;99773.16;5013309;28;20053;-57
2023/09/11 02:41:43;;;;;;;33.38;15.60;;;;;;;20.69;71.44;99769.59;5001395;28;20045;-47
2023/09/11 02:44:10;;;;;;;30.73;16.23;;;;;;;20.68;70.85;99770.53;5000788;28;20140;-48
2023/09/11 02:46:36;;;;;;;30.75;13.02;;;;;;;20.66;71.25;99775.88;5002114;28;20518;-54
2023/09/11 02:49:03;;;;;;;30.73;14.13;;;;;;;20.66;70.98;99765.34;4998191;28;20050;-53
2023/09/11 02:51:30;;;;;;;27.13;14.55;;;;;;;20.66;70.63;99772.38;4992489;28;20193;-53
2023/09/11 02:53:57;;;;;;;28.70;14.25;;;;;;;20.66;70.77;99769.75;5001575;28;20050;-54
2023/09/11 02:56:24;;;;;;;29.17;14.95;;;;;;;20.65;71.30;99763.66;5000340;28;20066;-52
2023/09/11 02:58:51;;;;;;;27.98;14.05;;;;;;;20.66;70.88;99756.59;5000875;28;20060;-49
2023/09/11 03:01:18;;;;;;;29.77;14.40;;;;;;;20.65;70.80;99758.41;4993169;28;20050;-50
2023/09/11 03:03:46;;;;;;;30.73;15.18;;;;;;;20.62;71.17;99763.81;5002129;28;20131;-55
2023/09/11 03:06:13;;;;;;;28.35;14.00;;;;;;;20.61;70.81;99758.63;4998700;28;20054;-54
2023/09/11 03:08:40;;;;;;;33.47;16.40;;;;;;;20.60;70.94;99760.38;4993355;28;20049;-53
2023/09/11 03:11:09;;;;;;;32.80;15.73;;;;;;;20.60;71.15;99759.56;4992232;28;20046;-53
2023/09/11 03:13:36;;;;;;;30.17;15.52;;;;;;;20.60;70.78;99764.81;4995216;28;20047;-49
2023/09/11 03:16:08;;;;;;;28.58;14.88;;;;;;;20.59;71.08;99765.72;4997839;28;20129;-51
2023/09/11 03:18:36;;;;;;;32.38;15.82;;;;;;;20.59;71.06;99766.59;4996924;28;20042;-51
2023/09/11 03:21:03;;;;;;;30.95;18.23;;;;;;;20.60;70.75;99764.81;4999677;28;20573;-50
2023/09/11 03:23:30;;;;;;;32.70;15.55;;;;;;;20.60;70.85;99752.50;4999070;28;20195;-48
2023/09/11 03:25:57;;;;;;;32.13;16.58;;;;;;;20.61;71.43;99761.25;4992994;28;20131;-49
2023/09/11 03:28:29;;;;;;;32.42;16.10;;;;;;;20.62;70.90;99758.53;4995980;28;20061;-46
2023/09/11 03:30:56;;;;;;;30.42;16.70;;;;;;;20.63;71.25;99762.00;4993724;28;20054;-56
2023/09/11 03:33:23;;;;;;;33.13;16.75;;;;;;;20.65;71.28;99762.78;4994150;28;20056;-51
2023/09/11 03:35:50;;;;;;;36.33;15.75;;;;;;;20.67;71.26;99758.31;4995420;28;20506;-47
2023/09/11 03:38:17;;;;;;;32.78;15.25;;;;;;;20.69;70.92;99759.09;4999055;28;20104;-52
2023/09/11 03:40:46;;;;;;;30.10;14.75;;;;;;;20.72;71.15;99758.06;4999235;28;20567;-49
2023/09/11 03:43:13;;;;;;;26.42;13.55;;;;;;;20.72;71.65;99751.03;4993017;28;20061;-50
2023/09/11 03:45:40;;;;;;;34.20;14.65;;;;;;;20.74;71.06;99751.78;4998001;28;20073;-50
2023/09/11 03:48:07;;;;;;;25.63;13.10;;;;;;;20.75;71.18;99758.78;4996243;28;20117;-55
2023/09/11 03:50:34;;;;;;;29.90;13.85;;;;;;;20.76;71.36;99755.22;4993364;28;20045;-55
2023/09/11 03:53:00;;;;;;;28.48;14.43;;;;;;;20.75;70.91;99758.78;4996522;28;20475;-46
2023/09/11 03:55:27;;;;;;;28.08;13.85;;;;;;;20.75;71.15;99757.94;4996161;28;20038;-51
2023/09/11 03:57:54;;;;;;;27.52;14.07;;;;;;;20.75;71.09;99763.19;4995372;28;20054;-50
2023/09/11 04:00:21;;;;;;;30.35;13.10;;;;;;;20.75;71.37;99764.06;4994149;28;20058;-49
2023/09/11 04:02:47;;;;;;;35.17;16.23;;;;;;;20.76;71.03;99755.22;4999376;28;20757;-53
2023/09/11 04:05:14;;;;;;;27.77;13.57;;;;;;;20.75;71.42;99748.25;4993810;28;20108;-52
2023/09/11 04:07:41;;;;;;;27.85;12.60;;;;;;;20.73;70.96;99752.72;4994103;28;20046;-52
2023/09/11 04:10:08;;;;;;;28.27;13.00;;;;;;;20.73;71.17;99754.53;5002962;28;20042;-51
2023/09/11 04:12:35;;;;;;;29.77;13.40;;;;;;;20.73;71.13;99752.72;4992924;28;20049;-54
2023/09/11 04:15:02;;;;;;;28.85;12.35;;;;;;;20.73;70.77;99752.72;4993579;28;20046;-53
2023/09/11 04:17:29;;;;;;;24.33;12.30;;;;;;;20.73;70.84;99744.84;4994928;28;20059;-52
2023/09/11 04:19:56;;;;;;;26.70;11.65;;;;;;;20.71;70.81;99751.97;4993556;28;20507;-53
2023/09/11 04:22:22;;;;;;;25.33;12.43;;;;;;;20.71;70.80;99751.97;5000156;28;20053;-48
2023/09/11 04:24:49;;;;;;;24.40;12.35;;;;;;;20.68;70.69;99746.88;4998614;28;20056;-49
2023/09/11 04:27:16;;;;;;;24.45;11.90;;;;;;;20.67;70.61;99750.44;4996193;28;20054;-54
2023/09/11 04:29:43;;;;;;;21.77;11.32;;;;;;;20.63;71.02;99749.72;4996411;28;20411;-56
2023/09/11 04:32:12;;;;;;;28.70;11.57;;;;;;;20.60;70.94;99751.66;4993638;28;20045;-51
2023/09/11 04:34:38;;;;;;;23.50;10.60;;;;;;;20.57;70.51;99743.91;4997057;28;20050;-51
2023/09/11 04:37:05;;;;;;;23.80;11.13;;;;;;;20.54;70.26;99745.75;4997516;28;20054;-49
2023/09/11 04:39:32;;;;;;;19.05;9.77;;;;;;;20.54;70.37;99753.66;5000614;28;20097;-46
2023/09/11 04:41:58;;;;;;;21.00;9.57;;;;;;;20.54;70.46;99752.81;4996503;28;20058;-46
2023/09/11 04:44:25;;;;;;;20.17;9.43;;;;;;;20.51;70.69;99761.72;4995607;28;20043;-52
2023/09/11 04:46:52;;;;;;;20.73;9.73;;;;;;;20.51;70.31;99761.72;4989518;28;20047;-53
2023/09/11 04:49:18;;;;;;;19.83;9.63;;;;;;;20.53;70.69;99764.25;4997443;28;20053;-48
2023/09/11 04:51:45;;;;;;;22.73;10.65;;;;;;;20.57;70.69;99770.22;4998768;28;20042;-56
2023/09/11 04:54:12;;;;;;;25.15;11.00;;;;;;;20.58;69.92;99777.19;4998464;28;20061;-49
2023/09/11 04:56:38;;;;;;;23.00;11.43;;;;;;;20.60;70.19;99780.59;4989272;28;20323;-50
2023/09/11 04:59:05;;;;;;;24.33;11.57;;;;;;;20.62;70.40;99779.59;4989698;28;20053;-53
2023/09/11 05:01:33;;;;;;;26.45;11.20;;;;;;;20.62;70.33;99784.00;4992739;28;20133;-50
2023/09/11 05:04:02;;;;;;;24.02;10.85;;;;;;;20.62;70.55;99782.22;4995129;28;20042;-48
2023/09/11 05:06:30;;;;;;;21.80;11.57;;;;;;;20.62;69.97;99789.25;4985980;28;20133;-49
2023/09/11 05:08:56;;;;;;;25.00;10.27;;;;;;;20.61;69.95;99788.41;4991596;28;20046;-53
2023/09/11 05:11:26;;;;;;;;;;;;;;;20.43;70.38;99790.13;4999060;28;20041;-47
2023/09/11 05:13:52;;;;;;;19.40;9.88;;;;;;;20.55;70.58;99789.56;4997432;28;19929;-53
2023/09/11 05:16:19;;;;;;;24.67;10.48;;;;;;;20.57;70.52;99786.88;4994722;28;20065;-51
2023/09/11 05:18:46;;;;;;;22.23;9.75;;;;;;;20.57;70.07;99786.00;4993993;28;20471;-52
2023/09/11 05:21:13;;;;;;;22.73;10.18;;;;;;;20.57;70.36;99792.13;4994639;28;20085;-52
2023/09/11 05:23:42;;;;;;;18.85;9.52;;;;;;;20.54;70.15;99793.09;4998750;28;20060;-54
2023/09/11 05:26:10;;;;;;;20.95;9.63;;;;;;;20.54;70.00;99798.38;4997375;28;20068;-51
2023/09/11 05:28:36;;;;;;;18.23;8.35;;;;;;;20.53;70.40;99793.19;4993608;28;20107;-52
2023/09/11 05:31:05;;;;;;;20.65;8.57;;;;;;;20.50;70.20;99794.19;5001087;28;20040;-48
2023/09/11 05:33:32;;;;;;;19.20;8.98;;;;;;;20.50;70.27;99796.81;4998469;28;20064;-53
2023/09/11 05:35:58;;;;;;;17.85;8.48;;;;;;;20.51;70.35;99809.06;4997318;28;20075;-51
2023/09/11 05:38:25;;;;;;;23.65;9.55;;;;;;;20.48;70.06;99803.94;4995072;28;20046;-53
2023/09/11 05:40:52;;;;;;;17.63;8.02;;;;;;;20.45;69.66;99814.59;4989231;28;20042;-51
2023/09/11 05:43:19;;;;;;;16.48;7.70;;;;;;;20.44;70.18;99812.91;4988233;28;20062;-48
2023/09/11 05:45:46;;;;;;;17.48;7.78;;;;;;;20.41;70.07;99815.69;4988303;28;20051;-46
2023/09/11 05:48:13;;;;;;;19.00;7.68;;;;;;;20.38;69.88;99808.78;4994178;28;20116;-53
2023/09/11 05:50:39;;;;;;;17.17;7.80;;;;;;;20.38;69.89;99818.44;4986373;28;20157;-48
2023/09/11 05:53:06;;;;;;;14.77;6.75;;;;;;;20.36;69.62;99804.53;4989894;28;20054;-53
2023/09/11 05:55:34;;;;;;;16.42;7.00;;;;;;;20.37;69.56;99814.13;4988678;28;20101;-50
2023/09/11 05:58:01;;;;;;;18.48;7.55;;;;;;;20.34;69.36;99823.00;4991676;28;20458;-53
2023/09/11 06:00:27;;;;;;;15.63;6.25;;;;;;;20.32;69.68;99814.34;4985368;28;20045;-51
2023/09/11 06:02:54;;;;;;;12.88;5.95;;;;;;;20.30;69.52;99810.94;4993749;28;20046;-47
2023/09/11 06:05:22;;;;;;;15.85;6.63;;;;;;;20.31;69.81;99819.66;4988282;28;20069;-52
2023/09/11 06:07:49;;;;;;;14.85;6.43;;;;;;;20.28;69.71;99829.41;4971324;28;20056;-52
2023/09/11 06:10:15;;;;;;;12.10;5.75;;;;;;;20.27;69.52;99821.59;4990880;28;20054;-52
2023/09/11 06:12:42;;;;;;;14.60;5.90;;;;;;;20.27;69.47;99822.44;4990023;28;20054;-48
2023/09/11 06:15:09;;;;;;;17.20;6.13;;;;;;;20.27;69.83;99832.13;4988042;28;20038;-53
2023/09/11 06:17:36;;;;;;;17.13;8.30;;;;;;;20.27;69.56;99830.31;4997095;28;20544;-50
2023/09/11 06:20:13;;;;;;;14.23;5.43;;;;;;;20.26;69.21;99828.63;4996324;28;20049;-51
2023/09/11 06:22:43;;;;;;;11.77;5.57;;;;;;;20.24;69.23;99833.13;4995758;28;20073;-54
2023/09/11 06:25:10;;;;;;;11.70;5.60;;;;;;;20.24;69.30;99827.00;4992791;28;20146;-52
2023/09/11 06:27:37;;;;;;;14.57;6.05;;;;;;;20.24;69.24;99825.22;4990506;28;20050;-52
2023/09/11 06:30:05;;;;;;;11.40;5.20;;;;;;;20.28;69.49;99824.16;4995009;28;20038;-47
2023/09/11 06:32:33;;;;;;;12.25;5.40;;;;;;;20.34;69.44;99827.41;4995721;28;20112;-52
2023/09/11 06:35:01;;;;;;;12.43;5.38;;;;;;;20.37;69.26;99832.53;4990420;28;20099;-50
2023/09/11 06:37:28;;;;;;;12.65;7.22;;;;;;;20.40;69.06;99835.03;4993972;28;20658;-49
2023/09/11 06:39:55;;;;;;;12.65;5.63;;;;;;;20.43;69.18;99842.75;4994256;28;20038;-46
2023/09/11 06:42:23;;;;;;;10.25;4.93;;;;;;;20.43;69.14;99842.75;4990398;28;20057;-50
2023/09/11 06:44:51;;;;;;;14.13;5.85;;;;;;;20.45;68.94;99840.91;4991150;28;20498;-54
2023/09/11 06:47:18;;;;;;;12.85;6.03;;;;;;;20.45;68.59;99840.91;4989140;28;20129;-53
2023/09/11 06:49:45;;;;;;;11.80;5.90;;;;;;;20.44;68.76;99849.72;4991105;28;20053;-52
2023/09/11 06:52:12;;;;;;;11.88;5.65;;;;;;;20.44;68.62;99833.94;4992899;28;20050;-51
2023/09/11 06:54:38;;;;;;;12.45;6.13;;;;;;;20.42;68.72;99831.38;4991884;28;20551;-49
2023/09/11 06:57:06;;;;;;;12.60;6.60;;;;;;;20.39;68.37;99830.66;4992022;28;20044;-54
2023/09/11 06:59:33;;;;;;;13.27;5.88;;;;;;;20.40;68.66;99832.41;4991809;28;21909;-51
2023/09/11 07:02:01;;;;;;;13.38;6.03;;;;;;;20.43;68.56;99826.97;4986790;28;20545;-52
2023/09/11 07:04:27;;;;;;;12.75;5.78;;;;;;;20.57;68.57;99825.47;4989305;28;20053;-47
2023/09/11 07:06:56;;;;;;;10.27;6.22;;;;;;;20.94;67.76;99821.06;4973545;28;20640;-53
2023/09/11 07:09:23;;;;;;;14.23;5.32;;;;;;;21.35;67.13;99811.13;4977524;28;20042;-50
2023/09/11 07:11:51;;;;;;;11.60;5.68;;;;;;;21.74;66.18;99820.53;4982809;28;20046;-50
2023/09/11 07:14:19;;;;;;;11.27;5.65;;;;;;;22.04;65.48;99827.72;4996162;28;20134;-53
2023/09/11 07:16:46;;;;;;;12.18;5.22;;;;;;;22.45;65.05;99820.22;4997402;28;20500;-48
2023/09/11 07:19:12;;;;;;;9.85;4.55;;;;;;;22.96;64.62;99819.16;4987956;28;20054;-56
2023/09/11 07:21:40;;;;;;;11.68;5.22;;;;;;;23.57;63.85;99821.75;4988187;28;20061;-50
2023/09/11 07:24:07;;;;;;;7.10;3.97;;;;;;;24.26;62.11;99822.84;4988202;28;20042;-50
2023/09/11 07:26:34;;;;;;;8.90;4.00;;;;;;;24.95;61.13;99821.13;4992965;28;20076;-50
2023/09/11 07:29:02;;;;;;;9.48;4.28;;;;;;;25.62;59.82;99829.84;4994420;28;20144;-53
2023/09/11 07:31:31;;;;;;;6.13;3.67;;;;;;;26.13;58.12;99833.38;4990061;28;20046;-55
2023/09/11 07:33:58;;;;;;;7.57;4.63;;;;;;;26.39;57.32;99833.34;4991085;28;20157;-48
2023/09/11 07:36:26;;;;;;;7.75;3.47;;;;;;;26.44;56.73;99837.34;4994321;28;20136;-51
2023/09/11 07:38:53;;;;;;;5.97;3.50;;;;;;;26.53;55.89;99840.28;4990300;28;20132;-50
2023/09/11 07:41:21;;;;;;;5.90;3.60;;;;;;;26.85;55.99;99839.69;4997317;28;20042;-53
2023/09/11 07:43:49;;;;;;;5.97;3.60;;;;;;;27.27;55.04;99843.72;4989636;28;20057;-48
2023/09/11 07:46:22;;;;;;;7.00;2.80;;;;;;;27.54;54.21;99846.06;4982090;28;20415;-55
2023/09/11 07:48:49;;;;;;;8.23;3.03;;;;;;;27.96;53.39;99834.84;4992198;28;20062;-52
2023/09/11 07:51:17;;;;;;;8.95;3.22;;;;;;;28.54;52.42;99832.09;4992399;28;20052;-49
2023/09/11 07:53:44;;;;;;;5.68;2.78;;;;;;;29.04;51.61;99838.69;4981891;28;20745;-53
2023/09/11 07:56:12;;;;;;;3.65;2.30;;;;;;;29.42;50.71;99852.38;4984610;28;20054;-50
2023/09/11 07:58:40;;;;;;;6.63;4.13;;;;;;;29.77;49.30;99840.50;4979570;28;20719;-54
2023/09/11 08:01:08;;;;;;;6.60;2.85;;;;;;;29.92;49.09;99843.63;4978192;28;20045;-47
2023/09/11 08:03:35;;;;;;;8.07;2.78;;;;;;;30.22;48.77;99847.25;4983839;28;20570;-54
2023/09/11 08:06:04;;;;;;;5.03;2.70;;;;;;;30.52;47.62;99849.97;4984690;28;20049;-49
2023/09/11 08:08:31;;;;;;;6.10;2.72;;;;;;;30.68;47.13;99852.09;4981391;28;20214;-49
2023/09/11 08:10:58;;;;;;;6.28;2.65;;;;;;;30.86;46.99;99848.78;4980555;28;20140;-50
2023/09/11 08:13:26;;;;;;;6.78;3.55;;;;;;;30.96;46.19;99843.41;4976937;28;20057;-50
2023/09/11 08:15:52;;;;;;;5.22;2.45;;;;;;;31.15;45.63;99845.19;4980367;28;20052;-51
2023/09/11 08:18:21;;;;;;;6.55;3.90;;;;;;;31.28;45.37;99851.06;4977959;28;20612;-52
2023/09/11 08:20:49;;;;;;;6.80;2.15;;;;;;;31.59;44.97;99854.53;4972959;28;20690;-49
2023/09/11 08:23:18;;;;;;;3.67;2.22;;;;;;;31.84;44.25;99838.81;4982407;28;20720;-51
2023/09/11 08:25:45;;;;;;;5.28;2.70;;;;;;;32.15;44.70;99846.56;4978562;28;20507;-49
2023/09/11 08:28:11;;;;;;;5.22;3.13;;;;;;;32.36;43.48;99851.66;4983489;28;20506;-54
2023/09/11 08:30:38;;;;;;;4.25;2.25;;;;;;;32.55;42.41;99842.63;4980504;28;20514;-47
2023/09/11 08:33:07;;;;;;;4.70;2.30;;;;;;;32.67;42.75;99850.44;4981820;28;20050;-48
2023/09/11 08:35:34;;;;;;;5.78;2.30;;;;;;;32.85;42.10;99850.44;4986258;28;20047;-51
2023/09/11 08:38:01;;;;;;;5.25;2.40;;;;;;;32.97;41.85;99845.69;4974734;28;20503;-51
2023/09/11 08:40:30;;;;;;;4.72;2.47;;;;;;;33.11;42.49;99843.44;4973707;28;20049;-51
2023/09/11 08:42:58;;;;;;;4.63;2.03;;;;;;;33.39;41.67;99835.25;4976257;28;20068;-50
2023/09/11 08:45:26;;;;;;;3.75;2.28;;;;;;;33.53;41.36;99845.38;4969083;28;20052;-52
2023/09/11 08:47:56;;;;;;;3.10;2.40;;;;;;;33.61;40.73;99841.94;4973062;28;20062;-50
2023/09/11 08:50:31;;;;;;;3.95;2.33;;;;;;;33.83;40.71;99835.16;4968474;28;20131;-51
2023/09/11 08:52:59;;;;;;;4.68;2.15;;;;;;;34.07;39.80;99836.22;4970898;28;20057;-53
2023/09/11 08:55:28;;;;;;;6.15;2.75;;;;;;;34.34;39.83;99842.38;4969474;28;20056;-53
2023/09/11 08:57:59;;;;;;;3.53;2.20;;;;;;;34.61;39.84;99843.06;4971590;28;20046;-53
2023/09/11 09:00:28;;;;;;;6.55;2.40;;;;;;;34.81;38.84;99832.00;4979452;28;20054;-45
2023/09/11 09:02:55;;;;;;;7.00;2.13;;;;;;;34.86;38.99;99835.03;4983357;28;20060;-50
2023/09/11 09:05:22;;;;;;;3.80;2.28;;;;;;;34.96;38.55;99834.88;4970012;28;20065;-52
2023/09/11 09:07:51;;;;;;;4.07;2.05;;;;;;;35.04;38.83;99835.84;4968055;28;20046;-49
2023/09/11 09:10:18;;;;;;;4.75;2.13;;;;;;;35.27;38.78;99833.31;4971147;28;20049;-56
2023/09/11 09:12:45;;;;;;;3.92;1.90;;;;;;;35.53;37.91;99834.94;4975228;28;20054;-57
2023/09/11 09:15:14;;;;;;;4.43;2.10;;;;;;;35.71;37.32;99833.88;4968927;28;20069;-50
2023/09/11 09:17:41;;;;;;;3.72;2.13;;;;;;;35.67;36.58;99843.31;4973857;28;20058;-45
2023/09/11 09:20:10;;;;;;;5.18;2.35;;;;;;;35.35;37.09;99838.69;4980936;28;20529;-55
2023/09/11 09:22:57;;;;;;;4.32;1.83;;;;;;;35.16;36.99;99836.38;4989223;28;20061;-47
2023/09/11 09:25:25;;;;;;;2.83;1.95;;;;;;;35.10;37.39;99843.25;4989776;28;20073;-49
2023/09/11 09:27:52;;;;;;;3.95;2.20;;;;;;;35.09;36.98;99842.38;4986691;28;20058;-49
2023/09/11 09:30:21;;;;;;;5.82;2.10;;;;;;;35.10;37.53;99841.41;4988438;28;20058;-52
2023/09/11 09:32:49;;;;;;;;;;;;;;;35.41;37.19;99830.91;4990619;28;20053;-45
2023/09/11 09:35:22;;;;;;;4.45;2.42;;;;;;;35.47;37.71;99831.09;4985844;28;19957;-46
2023/09/11 09:37:51;;;;;;;3.10;2.10;;;;;;;35.64;37.10;99837.25;4985306;28;20046;-49
2023/09/11 09:40:36;;;;;;;3.78;1.98;;;;;;;35.69;35.02;99852.06;4987884;28;20050;-51
2023/09/11 09:43:05;;;;;;;3.05;2.03;;;;;;;35.32;36.25;99854.34;4985925;28;20077;-49
2023/09/11 09:45:35;;;;;;;3.47;2.38;;;;;;;35.10;36.94;99838.72;4993193;28;20502;-46
2023/09/11 09:48:20;;;;;;;4.88;1.65;;;;;;;35.03;36.96;99835.03;4994098;28;20056;-51
2023/09/11 09:50:57;;;;;;;8.10;1.90;;;;;;;35.07;37.28;99841.75;4989779;28;20159;-46
2023/09/11 09:56:04;;;;;;;5.78;2.28;;;;;;;35.39;36.90;99849.97;5054605;27;20401;-48
2023/09/11 09:58:36;;;;;;;3.90;1.95;;;;;;;35.52;36.51;99849.38;5029273;28;20056;-46
2023/09/11 10:01:07;;;;;;;3.25;2.00;;;;;;;35.59;36.75;99845.00;5028700;28;20496;-47
2023/09/11 10:03:46;;;;;;;3.88;2.28;;;;;;;35.72;36.30;99849.00;5039483;28;20053;-51
2023/09/11 10:06:20;;;;;;;4.30;2.78;;;;;;;35.72;36.56;99846.31;5025730;28;20053;-49
2023/09/11 10:09:13;;;;;;;3.80;2.35;;;;;;;35.75;36.74;99848.66;5027656;28;20577;-46
2023/09/11 10:11:44;;;;;;;4.00;2.03;;;;;;;35.57;36.04;99844.34;5026633;28;20111;-47
2023/09/11 10:14:13;;;;;;;5.15;2.10;;;;;;;35.24;35.89;99841.72;5017178;28;20161;-48
2023/09/11 10:16:40;;;;;;;5.07;2.00;;;;;;;34.96;36.50;99845.63;5008421;28;20050;-46
2023/09/11 10:19:07;;;;;;;4.38;2.83;;;;;;;34.56;36.51;99837.34;5004401;28;20388;-47
2023/09/11 10:21:34;;;;;;;3.65;1.83;;;;;;;34.08;37.01;99837.91;5005229;28;20061;-50
2023/09/11 10:24:01;;;;;;;2.42;2.20;;;;;;;33.67;38.13;99835.09;5007322;28;20103;-52
2023/09/11 10:26:49;;;;;;;5.78;1.80;;;;;;;33.51;38.70;99831.28;5013597;28;20057;-51
2023/09/11 10:29:22;;;;;;;6.68;1.98;;;;;;;33.52;39.15;99832.13;5010949;28;20070;-49
2023/09/11 10:31:56;;;;;;;3.53;1.70;;;;;;;33.53;38.78;99828.44;5005986;28;20058;-47
2023/09/11 10:34:25;;;;;;;5.50;1.65;;;;;;;33.44;39.08;99832.94;5012098;28;20089;-53
2023/09/11 10:36:57;;;;;;;6.63;2.50;;;;;;;33.33;38.68;99834.88;5037932;28;20699;-50
2023/09/11 10:39:24;;;;;;;3.72;1.35;;;;;;;33.20;39.53;99846.03;5037580;28;20049;-51
2023/09/11 10:41:52;;;;;;;2.53;1.63;;;;;;;33.06;39.67;99839.41;5038824;28;20120;-48
2023/09/11 10:44:18;;;;;;;4.20;2.72;;;;;;;32.95;40.59;99828.88;5023555;28;20442;-47
2023/09/11 10:46:50;;;;;;;2.08;1.50;;;;;;;33.05;39.48;99827.00;5007084;28;20054;-51
2023/09/11 10:49:20;;;;;;;2.72;1.77;;;;;;;32.91;39.60;99824.84;5006631;28;20209;-45
2023/09/11 10:51:48;;;;;;;2.67;1.85;;;;;;;32.80;39.59;99824.09;5003333;28;20089;-46
2023/09/11 10:54:19;;;;;;;2.53;1.52;;;;;;;32.55;39.36;99813.16;5020089;28;20635;-48
2023/09/11 10:56:49;;;;;;;4.85;1.23;;;;;;;32.39;40.87;99812.97;5000778;28;20755;-48
2023/09/11 10:59:16;;;;;;;4.97;1.80;;;;;;;32.41;40.44;99813.66;5000407;28;20057;-48
2023/09/11 11:01:46;;;;;;;2.80;1.45;;;;;;;32.46;40.98;99816.78;5007556;28;20046;-50
2023/09/11 11:04:15;;;;;;;3.05;1.60;;;;;;;32.61;41.06;99809.03;5015766;28;20096;-48
2023/09/11 11:06:45;;;;;;;2.65;1.48;;;;;;;32.81;41.10;99809.69;5023223;28;20045;-48
2023/09/11 11:09:23;;;;;;;6.00;1.33;;;;;;;32.81;40.13;99814.19;5015374;28;20065;-52
2023/09/11 11:12:03;;;;;;;2.15;1.70;;;;;;;32.73;39.56;99814.13;5013616;28;20072;-50
2023/09/11 11:14:31;;;;;;;4.93;1.98;;;;;;;32.35;39.22;99811.59;5012423;28;20462;-49
2023/09/11 11:22:32;;;;;;;5.10;2.25;;;;;;;31.75;40.42;99803.06;5056803;27;20418;-52
2023/09/11 11:25:02;;;;;;;2.30;1.45;;;;;;;31.76;40.61;99792.22;4999503;28;20056;-50
2023/09/11 11:27:29;;;;;;;3.55;1.50;;;;;;;31.68;40.98;99802.81;4993013;28;20049;-49
2023/09/11 11:29:57;;;;;;;2.40;1.60;;;;;;;31.58;40.92;99797.50;4996073;28;20046;-46
2023/09/11 11:32:25;;;;;;;4.30;1.88;;;;;;;31.71;41.32;99791.78;4996993;28;20112;-50
2023/09/11 11:34:55;;;;;;;8.57;1.73;;;;;;;31.96;41.15;99789.44;4999597;28;20533;-50
2023/09/11 11:37:24;;;;;;;2.80;1.50;;;;;;;32.04;40.46;99789.53;4995727;28;20569;-48
2023/09/11 11:39:51;;;;;;;3.20;1.27;;;;;;;32.02;40.07;99801.41;4997975;28;20050;-51
2023/09/11 11:42:18;;;;;;;4.70;1.90;;;;;;;31.92;39.88;99785.38;4992832;28;20081;-49
2023/09/11 11:44:47;;;;;;;5.63;1.80;;;;;;;31.70;39.92;99794.66;4997088;28;20049;-49
2023/09/11 11:47:15;;;;;;;5.03;2.30;;;;;;;31.40;40.39;99797.41;4994373;28;20061;-49
2023/09/11 11:49:43;;;;;;;6.15;1.88;;;;;;;31.16;40.58;99798.75;4997400;28;20058;-48
2023/09/11 11:52:10;;;;;;;2.80;1.85;;;;;;;30.96;41.21;99798.78;5004598;28;20137;-50